Time;durP1;ratioP1;P1;durP2;ratioP2;P2;SDS_P1;SDS_P2;PMS_P1;PMS_P2;Temp;Humidity;BMP_temperature;BMP_pressure;BME280_temperature;BME280_humidity;BME280_pressure;Samples;Min_cycle;Max_cycle;Signal;HPM_P1;HPM_P2
2023/08/13 00:01:21;;;;;;;13.85;2.97;;;16.40;99.90;;;;;;5094105;28;20060;-55
2023/08/13 00:03:47;;;;;;;12.10;2.97;;;16.40;99.90;;;;;;5095469;28;20044;-53
2023/08/13 00:06:13;;;;;;;9.15;2.83;;;16.30;99.90;;;;;;5096971;27;20422;-52
2023/08/13 00:08:38;;;;;;;15.32;3.75;;;16.30;99.90;;;;;;5097905;27;20032;-54
2023/08/13 00:11:11;;;;;;;11.35;2.88;;;16.30;99.90;;;;;;5099487;27;20217;-54
2023/08/13 00:13:41;;;;;;;9.30;2.90;;;16.30;99.90;;;;;;5097167;27;20152;-55
2023/08/13 00:16:07;;;;;;;9.07;2.67;;;16.30;99.90;;;;;;5097244;27;20050;-54
2023/08/13 00:18:34;;;;;;;11.98;3.20;;;16.30;99.90;;;;;;5100259;28;20047;-54
2023/08/13 00:20:59;;;;;;;11.15;2.85;;;16.30;99.90;;;;;;5097257;28;20040;-53
2023/08/13 00:23:26;;;;;;;15.35;2.95;;;16.30;99.90;;;;;;5097792;27;20490;-55
2023/08/13 00:25:52;;;;;;;13.38;2.80;;;16.20;99.90;;;;;;5097141;27;20051;-57
2023/08/13 00:28:18;;;;;;;12.32;3.05;;;16.30;99.90;;;;;;5097804;28;20130;-55
2023/08/13 00:30:44;;;;;;;13.32;2.85;;;16.20;99.90;;;;;;5097311;27;20059;-56
2023/08/13 00:33:09;;;;;;;8.07;3.17;;;16.20;99.90;;;;;;5097132;27;20047;-53
2023/08/13 00:35:35;;;;;;;9.95;2.92;;;16.20;99.90;;;;;;5097845;28;20402;-55
2023/08/13 00:38:01;;;;;;;8.75;2.40;;;16.20;99.90;;;;;;5097314;27;20533;-54
2023/08/13 00:40:27;;;;;;;12.50;2.65;;;16.20;99.90;;;;;;5096288;28;20482;-54
2023/08/13 00:42:53;;;;;;;17.58;3.63;;;16.10;99.90;;;;;;5097821;27;20043;-55
2023/08/13 00:45:20;;;;;;;10.90;2.78;;;16.20;99.90;;;;;;5097825;27;20052;-56
2023/08/13 00:47:47;;;;;;;15.55;2.97;;;16.10;99.90;;;;;;5097010;27;20553;-56
2023/08/13 00:50:13;;;;;;;13.05;2.97;;;16.10;99.90;;;;;;5096933;27;20516;-56
2023/08/13 00:52:39;;;;;;;9.02;2.65;;;16.10;99.90;;;;;;5097711;27;20043;-55
2023/08/13 00:55:05;;;;;;;16.58;3.08;;;16.10;99.90;;;;;;5097949;28;20046;-55
2023/08/13 00:57:31;;;;;;;10.43;2.92;;;16.10;99.90;;;;;;5098125;28;20115;-56
2023/08/13 00:59:58;;;;;;;11.07;3.05;;;16.10;99.90;;;;;;5095017;27;20468;-54
2023/08/13 01:02:24;;;;;;;10.07;2.88;;;16.10;99.90;;;;;;5099068;28;20474;-54
2023/08/13 01:04:49;;;;;;;11.07;2.55;;;16.10;99.90;;;;;;5095855;27;20164;-56
2023/08/13 01:07:24;;;;;;;14.82;3.33;;;16.10;99.90;;;;;;5092246;27;20523;-55
2023/08/13 01:09:57;;;;;;;13.70;2.83;;;16.10;99.90;;;;;;5091939;27;20346;-54
2023/08/13 01:12:43;;;;;;;10.38;2.88;;;16.00;99.90;;;;;;5096490;28;20123;-54
2023/08/13 01:15:17;;;;;;;10.43;3.08;;;16.00;99.90;;;;;;5097180;27;20048;-56
2023/08/13 01:17:45;;;;;;;11.35;3.05;;;16.00;99.90;;;;;;5078693;28;20073;-56
2023/08/13 01:20:12;;;;;;;12.77;3.25;;;16.00;99.90;;;;;;5095943;28;20066;-56
2023/08/13 01:22:49;;;;;;;12.82;3.08;;;16.00;99.90;;;;;;5095343;27;20039;-55
2023/08/13 01:25:17;;;;;;;11.93;3.25;;;16.00;99.90;;;;;;5096672;27;20113;-54
2023/08/13 01:27:56;;;;;;;11.55;3.53;;;16.00;99.90;;;;;;5098119;27;20047;-56
2023/08/13 01:30:45;;;;;;;10.70;2.95;;;16.00;99.90;;;;;;5095775;28;20039;-57
2023/08/13 01:33:16;;;;;;;10.23;3.08;;;16.00;99.90;;;;;;5080778;28;20075;-56
2023/08/13 01:35:43;;;;;;;18.33;3.72;;;15.90;99.90;;;;;;5096378;27;20506;-57
2023/08/13 01:38:10;;;;;;;12.25;3.15;;;15.90;99.90;;;;;;5096386;27;20438;-56
2023/08/13 01:40:35;;;;;;;16.00;3.72;;;15.90;99.90;;;;;;5096154;27;20114;-57
2023/08/13 01:43:01;;;;;;;12.23;3.22;;;15.90;99.90;;;;;;5097303;27;20031;-55
2023/08/13 01:45:27;;;;;;;13.10;3.28;;;15.90;99.90;;;;;;5095604;27;20053;-56
2023/08/13 01:47:52;;;;;;;14.20;3.08;;;15.90;99.90;;;;;;5079751;28;20058;-56
2023/08/13 01:50:19;;;;;;;14.50;3.08;;;15.90;99.90;;;;;;5095523;28;20147;-55
2023/08/13 01:52:45;;;;;;;9.75;3.00;;;15.90;99.90;;;;;;5094253;28;20089;-55
2023/08/13 01:55:11;;;;;;;13.90;3.30;;;15.90;99.90;;;;;;5096553;27;20043;-55
2023/08/13 01:57:36;;;;;;;13.55;3.42;;;15.90;99.90;;;;;;5077416;28;20510;-54
2023/08/13 02:00:03;;;;;;;16.00;3.90;;;15.90;99.90;;;;;;5095072;28;20073;-56
2023/08/13 02:02:29;;;;;;;15.38;3.38;;;15.90;99.90;;;;;;5097665;27;20110;-55
2023/08/13 02:04:55;;;;;;;19.10;3.83;;;15.90;99.90;;;;;;5095412;28;20064;-56
2023/08/13 02:07:20;;;;;;;14.15;3.45;;;15.90;99.90;;;;;;5095257;28;20580;-57
2023/08/13 02:09:46;;;;;;;14.98;3.72;;;15.90;99.90;;;;;;5095979;27;20036;-56
2023/08/13 02:12:12;;;;;;;10.95;3.95;;;15.90;99.90;;;;;;5067208;28;20039;-54
2023/08/13 02:14:38;;;;;;;18.60;3.58;;;15.90;99.90;;;;;;5078134;28;20066;-55
2023/08/13 02:17:04;;;;;;;14.57;3.47;;;15.90;99.90;;;;;;5095611;28;20043;-56
2023/08/13 02:19:29;;;;;;;14.07;3.75;;;15.90;99.90;;;;;;5096389;27;20044;-56
2023/08/13 02:21:55;;;;;;;15.30;3.17;;;15.90;99.90;;;;;;5095584;27;20187;-56
2023/08/13 02:24:21;;;;;;;12.50;3.78;;;15.90;99.90;;;;;;5077174;28;20039;-56
2023/08/13 02:26:46;;;;;;;12.57;3.20;;;15.80;99.90;;;;;;5095745;27;20090;-57
2023/08/13 02:29:12;;;;;;;13.25;3.60;;;15.90;99.90;;;;;;5094359;28;20466;-55
2023/08/13 02:31:38;;;;;;;11.35;2.67;;;15.90;99.90;;;;;;5096010;27;20039;-56
2023/08/13 02:34:04;;;;;;;14.50;3.60;;;15.80;99.90;;;;;;5078030;28;20517;-53
2023/08/13 02:36:29;;;;;;;15.35;3.63;;;15.90;99.90;;;;;;5093726;28;20173;-54
2023/08/13 02:38:55;;;;;;;14.70;3.78;;;15.80;99.90;;;;;;5095104;28;20039;-53
2023/08/13 02:41:21;;;;;;;18.42;4.20;;;15.80;99.90;;;;;;5094878;28;20173;-54
2023/08/13 02:43:54;;;;;;;13.07;3.47;;;15.80;99.90;;;;;;5095820;28;20031;-55
2023/08/13 02:46:21;;;;;;;13.90;3.55;;;15.80;99.90;;;;;;5095976;28;20063;-54
2023/08/13 02:48:47;;;;;;;20.80;4.00;;;15.80;99.90;;;;;;5093424;28;20039;-53
2023/08/13 02:51:14;;;;;;;12.20;3.60;;;15.80;99.90;;;;;;5095994;27;20035;-56
2023/08/13 02:53:41;;;;;;;12.70;3.72;;;15.80;99.90;;;;;;5094822;27;20150;-56
2023/08/13 02:56:07;;;;;;;18.77;3.72;;;15.80;99.90;;;;;;5093683;27;20048;-55
2023/08/13 02:58:33;;;;;;;17.58;3.83;;;15.80;99.90;;;;;;5094288;28;20050;-54
2023/08/13 03:00:59;;;;;;;13.23;3.60;;;15.80;99.90;;;;;;5095719;28;20482;-54
2023/08/13 03:03:25;;;;;;;14.98;3.80;;;15.80;99.90;;;;;;5093810;27;20055;-56
2023/08/13 03:05:50;;;;;;;19.33;4.13;;;15.80;99.90;;;;;;5095305;28;20036;-56
2023/08/13 03:08:16;;;;;;;16.48;3.47;;;15.80;99.90;;;;;;5094058;28;20072;-56
2023/08/13 03:10:42;;;;;;;14.07;4.18;;;15.80;99.90;;;;;;5082409;28;20036;-55
2023/08/13 03:13:07;;;;;;;14.52;3.53;;;15.80;99.90;;;;;;5096752;27;20367;-56
2023/08/13 03:15:33;;;;;;;15.05;3.92;;;15.80;99.90;;;;;;5093530;28;20083;-53
2023/08/13 03:17:59;;;;;;;15.15;3.33;;;15.70;99.90;;;;;;5094557;28;20123;-55
2023/08/13 03:20:24;;;;;;;15.40;3.80;;;15.70;99.90;;;;;;5094059;28;20121;-55
2023/08/13 03:22:50;;;;;;;15.38;3.83;;;15.70;99.90;;;;;;5094941;27;20047;-54
2023/08/13 03:25:16;;;;;;;14.88;3.65;;;15.70;99.90;;;;;;5095076;28;20127;-54
2023/08/13 03:27:42;;;;;;;12.20;3.58;;;15.70;99.90;;;;;;5094679;28;20067;-54
2023/08/13 03:30:08;;;;;;;17.80;3.75;;;15.70;99.90;;;;;;5092224;28;20115;-54
2023/08/13 03:32:35;;;;;;;14.52;4.63;;;15.70;99.90;;;;;;5093711;28;20468;-56
2023/08/13 03:35:00;;;;;;;14.18;3.53;;;15.70;99.90;;;;;;5095906;28;20039;-54
2023/08/13 03:37:26;;;;;;;13.07;3.70;;;15.70;99.90;;;;;;5076851;28;20433;-56
2023/08/13 03:39:52;;;;;;;15.93;3.88;;;15.70;99.90;;;;;;5094151;28;20043;-56
2023/08/13 03:42:17;;;;;;;13.27;3.55;;;15.70;99.90;;;;;;5094010;28;20040;-57
2023/08/13 03:44:43;;;;;;;16.63;3.70;;;15.70;99.90;;;;;;5077932;28;20061;-57
2023/08/13 03:47:09;;;;;;;19.23;3.13;;;15.60;99.90;;;;;;5095044;28;20055;-56
2023/08/13 03:49:35;;;;;;;15.20;3.80;;;15.60;99.90;;;;;;5093922;28;20040;-55
2023/08/13 03:52:00;;;;;;;15.43;3.80;;;15.70;99.90;;;;;;5095045;28;20120;-55
2023/08/13 03:54:26;;;;;;;13.50;3.50;;;15.70;99.90;;;;;;5081021;28;20470;-56
2023/08/13 03:56:52;;;;;;;13.30;3.90;;;15.70;99.90;;;;;;5075955;28;20043;-55
2023/08/13 03:59:18;;;;;;;17.92;4.15;;;15.70;99.90;;;;;;5093911;28;20546;-56
2023/08/13 04:01:44;;;;;;;13.50;3.35;;;15.60;99.90;;;;;;5093888;28;20036;-55
2023/08/13 04:04:09;;;;;;;16.13;4.30;;;15.70;99.90;;;;;;5095599;28;20144;-56
2023/08/13 04:06:35;;;;;;;16.20;3.78;;;15.70;99.90;;;;;;5090630;28;20057;-57
2023/08/13 04:09:01;;;;;;;16.92;3.83;;;15.70;99.90;;;;;;5093063;28;20050;-54
2023/08/13 04:11:28;;;;;;;11.50;3.70;;;15.70;99.90;;;;;;5080317;28;20575;-56
2023/08/13 04:13:53;;;;;;;17.15;3.90;;;15.60;99.90;;;;;;5092773;28;20044;-54
2023/08/13 04:16:20;;;;;;;16.73;3.67;;;15.60;99.90;;;;;;5096186;28;20061;-56
2023/08/13 04:18:45;;;;;;;15.10;4.55;;;15.70;99.90;;;;;;5093712;28;20093;-55
2023/08/13 04:21:11;;;;;;;12.65;3.60;;;15.60;99.90;;;;;;5093586;28;20117;-56
2023/08/13 04:23:37;;;;;;;15.55;3.67;;;15.70;99.90;;;;;;5094426;28;20040;-56
2023/08/13 04:26:02;;;;;;;14.82;3.88;;;15.70;99.90;;;;;;5091968;28;20060;-55
2023/08/13 04:28:28;;;;;;;20.85;4.40;;;15.70;99.90;;;;;;5095051;28;20042;-56
2023/08/13 04:30:54;;;;;;;14.48;3.70;;;15.70;99.90;;;;;;5094256;28;20032;-54
2023/08/13 04:33:20;;;;;;;12.32;3.83;;;15.80;99.90;;;;;;5076852;28;20044;-55
2023/08/13 04:35:46;;;;;;;15.52;3.58;;;15.80;99.90;;;;;;5093146;28;20444;-54
2023/08/13 04:38:12;;;;;;;14.55;4.00;;;15.80;99.90;;;;;;5094112;28;20043;-55
2023/08/13 04:40:37;;;;;;;17.27;4.80;;;15.80;99.90;;;;;;5094568;28;20036;-55
2023/08/13 04:43:03;;;;;;;15.85;4.03;;;15.80;99.90;;;;;;5092967;28;20040;-53
2023/08/13 04:45:29;;;;;;;17.80;3.80;;;15.90;99.90;;;;;;5091714;28;20041;-55
2023/08/13 04:47:55;;;;;;;14.18;4.15;;;15.90;99.90;;;;;;5095131;28;20040;-56
2023/08/13 04:50:20;;;;;;;15.35;3.80;;;15.90;99.90;;;;;;5074800;28;20486;-55
2023/08/13 04:52:46;;;;;;;14.98;3.95;;;16.00;99.90;;;;;;5096261;28;20083;-55
2023/08/13 04:55:12;;;;;;;18.13;3.70;;;16.00;99.90;;;;;;5098023;28;20471;-55
2023/08/13 04:57:38;;;;;;;16.00;3.35;;;16.00;99.90;;;;;;5095747;27;20870;-52
2023/08/13 05:00:04;;;;;;;17.52;4.55;;;16.10;99.90;;;;;;5096815;28;20119;-57
2023/08/13 05:02:30;;;;;;;20.95;4.93;;;16.10;99.90;;;;;;5096821;28;20061;-55
2023/08/13 05:04:55;;;;;;;15.23;3.90;;;16.10;99.90;;;;;;5096698;28;20127;-56
2023/08/13 05:07:22;;;;;;;14.30;3.90;;;16.20;99.90;;;;;;5096660;27;20040;-57
2023/08/13 05:09:48;;;;;;;17.73;4.07;;;16.20;99.90;;;;;;5096830;28;20567;-55
2023/08/13 05:12:14;;;;;;;16.15;4.05;;;16.20;99.90;;;;;;5098591;27;20076;-54
2023/08/13 05:14:39;;;;;;;14.20;4.15;;;16.20;99.90;;;;;;5078632;27;20342;-56
2023/08/13 05:17:17;;;;;;;17.55;4.20;;;16.30;99.90;;;;;;5096931;27;21060;-56
2023/08/13 05:19:43;;;;;;;18.38;4.10;;;16.30;99.90;;;;;;5098239;28;20664;-56
2023/08/13 05:22:08;;;;;;;11.18;3.72;;;16.30;99.90;;;;;;5097391;27;20039;-55
2023/08/13 05:24:34;;;;;;;17.42;4.32;;;16.40;99.90;;;;;;5096496;27;20401;-56
2023/08/13 05:27:00;;;;;;;13.80;4.10;;;16.40;99.90;;;;;;5097313;28;20063;-55
2023/08/13 05:29:25;;;;;;;14.23;3.97;;;16.50;99.90;;;;;;5076706;28;20478;-57
2023/08/13 05:31:53;;;;;;;13.35;3.58;;;16.50;99.90;;;;;;5097801;28;20047;-55
2023/08/13 05:34:19;;;;;;;13.82;3.90;;;16.50;99.90;;;;;;5096973;28;20736;-55
2023/08/13 05:36:45;;;;;;;15.43;3.67;;;16.50;99.90;;;;;;5095735;27;20061;-53
2023/08/13 05:39:10;;;;;;;13.50;3.92;;;16.50;99.90;;;;;;5084478;28;20039;-55
2023/08/13 05:41:36;;;;;;;13.30;4.10;;;16.60;99.90;;;;;;5079328;28;20432;-55
2023/08/13 05:44:02;;;;;;;19.00;4.20;;;16.60;99.90;;;;;;5095371;27;20127;-57
2023/08/13 05:46:28;;;;;;;15.77;4.20;;;16.60;99.90;;;;;;5098752;28;20047;-55
2023/08/13 05:48:54;;;;;;;17.15;4.10;;;16.60;99.90;;;;;;5078314;28;20035;-56
2023/08/13 05:51:20;;;;;;;18.15;4.03;;;16.60;99.90;;;;;;5095862;28;20845;-56
2023/08/13 05:53:46;;;;;;;13.73;3.60;;;16.60;99.90;;;;;;5066175;28;20036;-56
2023/08/13 05:56:11;;;;;;;16.70;4.03;;;16.60;99.90;;;;;;5094922;27;20402;-52
2023/08/13 05:58:37;;;;;;;15.75;4.07;;;16.60;99.90;;;;;;5097178;27;20059;-56
2023/08/13 06:01:03;;;;;;;15.32;5.18;;;16.60;99.90;;;;;;5096063;28;20036;-55
2023/08/13 06:03:29;;;;;;;16.42;3.85;;;16.70;99.90;;;;;;5096961;27;20045;-56
2023/08/13 06:05:55;;;;;;;12.38;3.42;;;16.60;99.90;;;;;;5096178;28;20119;-56
2023/08/13 06:08:21;;;;;;;17.38;4.30;;;16.60;99.90;;;;;;5096566;27;20071;-56
2023/08/13 06:10:47;;;;;;;18.00;4.30;;;16.60;99.90;;;;;;5097128;27;20477;-55
2023/08/13 06:13:13;;;;;;;13.80;4.15;;;16.60;99.90;;;;;;5095204;28;20039;-56
2023/08/13 06:15:38;;;;;;;14.00;4.05;;;16.70;99.90;;;;;;5079865;27;20062;-54
2023/08/13 06:18:05;;;;;;;13.32;4.13;;;16.60;99.90;;;;;;5094844;27;20047;-55
2023/08/13 06:20:31;;;;;;;16.08;4.30;;;16.60;99.90;;;;;;5095557;27;20062;-54
2023/08/13 06:22:57;;;;;;;15.80;4.00;;;16.60;99.90;;;;;;5096269;27;20510;-56
2023/08/13 06:25:23;;;;;;;14.05;4.32;;;16.60;99.90;;;;;;5095339;27;20071;-55
2023/08/13 06:27:49;;;;;;;14.63;4.40;;;16.60;99.90;;;;;;5095400;27;20585;-56
2023/08/13 06:30:14;;;;;;;19.05;4.40;;;16.70;99.90;;;;;;5096512;27;20090;-56
2023/08/13 06:32:40;;;;;;;13.43;4.05;;;16.80;99.90;;;;;;5094594;28;20394;-56
2023/08/13 06:35:06;;;;;;;12.75;3.88;;;16.90;99.90;;;;;;5093570;27;20059;-56
2023/08/13 06:37:32;;;;;;;17.83;4.75;;;17.00;99.90;;;;;;5094680;27;20039;-56
2023/08/13 06:39:58;;;;;;;14.35;4.45;;;17.10;99.90;;;;;;5076325;28;20899;-55
2023/08/13 06:42:23;;;;;;;13.57;4.00;;;17.20;99.90;;;;;;5096075;27;20051;-56
2023/08/13 06:44:49;;;;;;;15.38;4.47;;;17.30;99.90;;;;;;5093783;28;20077;-56
2023/08/13 06:47:15;;;;;;;22.80;4.88;;;17.40;99.90;;;;;;5095022;27;20032;-55
2023/08/13 06:49:41;;;;;;;14.65;4.50;;;17.50;99.90;;;;;;5095841;27;20123;-57
2023/08/13 06:52:07;;;;;;;15.38;4.30;;;17.50;99.90;;;;;;5093269;27;20756;-57
2023/08/13 06:54:33;;;;;;;14.80;4.75;;;17.50;99.90;;;;;;5093988;28;20094;-55
2023/08/13 06:56:59;;;;;;;13.23;5.00;;;17.60;99.90;;;;;;5093511;28;20035;-55
2023/08/13 06:59:25;;;;;;;12.15;4.72;;;17.50;99.90;;;;;;5094190;28;20045;-55
2023/08/13 07:01:51;;;;;;;14.80;4.13;;;17.60;99.90;;;;;;5095242;28;20561;-56
2023/08/13 07:04:16;;;;;;;17.10;4.72;;;17.60;99.90;;;;;;5094194;28;20118;-54
2023/08/13 07:06:42;;;;;;;24.10;6.07;;;17.60;99.90;;;;;;5094788;27;20459;-57
2023/08/13 07:09:08;;;;;;;14.10;4.40;;;17.70;99.90;;;;;;5094145;28;20436;-54
2023/08/13 07:11:36;;;;;;;12.65;4.03;;;17.70;99.90;;;;;;5092976;27;20473;-56
2023/08/13 07:14:03;;;;;;;12.43;4.30;;;17.80;99.90;;;;;;5091773;28;20527;-56
2023/08/13 07:16:29;;;;;;;12.57;4.45;;;17.80;99.90;;;;;;5094435;28;20501;-57
2023/08/13 07:18:55;;;;;;;12.15;3.90;;;17.90;99.90;;;;;;5093939;28;20047;-56
2023/08/13 07:21:21;;;;;;;18.92;4.85;;;18.00;99.90;;;;;;5094439;28;20071;-55
2023/08/13 07:23:47;;;;;;;17.75;4.45;;;18.10;99.90;;;;;;5093992;28;20123;-55
2023/08/13 07:26:13;;;;;;;14.30;4.10;;;18.20;99.90;;;;;;5093919;28;20150;-54
2023/08/13 07:28:40;;;;;;;15.77;5.25;;;18.30;99.90;;;;;;5094203;27;20027;-55
2023/08/13 07:31:06;;;;;;;15.75;4.30;;;18.40;99.90;;;;;;5076891;28;20135;-55
2023/08/13 07:33:32;;;;;;;16.25;4.68;;;18.50;99.90;;;;;;5095285;28;20116;-57
2023/08/13 07:36:03;;;;;;;15.43;4.20;;;18.60;99.90;;;;;;5091757;28;20043;-56
2023/08/13 07:38:29;;;;;;;13.40;4.07;;;18.70;99.90;;;;;;5092946;28;20385;-55
2023/08/13 07:41:00;;;;;;;18.50;4.38;;;18.70;99.90;;;;;;5083910;28;20093;-57
2023/08/13 07:43:26;;;;;;;15.15;4.28;;;18.80;99.90;;;;;;5093521;28;20039;-56
2023/08/13 07:45:52;;;;;;;15.20;4.05;;;18.80;99.90;;;;;;5075854;28;20379;-57
2023/08/13 07:48:18;;;;;;;14.73;4.15;;;18.90;99.90;;;;;;5093133;28;20181;-56
2023/08/13 07:50:43;;;;;;;12.77;4.05;;;19.00;99.90;;;;;;5092831;28;20895;-58
2023/08/13 07:53:09;;;;;;;20.58;4.40;;;19.10;99.90;;;;;;5095079;28;20039;-56
2023/08/13 07:55:35;;;;;;;12.77;3.92;;;19.20;99.90;;;;;;5093628;28;20465;-55
2023/08/13 07:58:01;;;;;;;13.75;4.20;;;19.30;99.90;;;;;;5093583;28;20494;-56
2023/08/13 08:00:27;;;;;;;11.63;4.18;;;19.40;99.90;;;;;;5093837;28;20040;-55
2023/08/13 08:02:53;;;;;;;19.48;4.68;;;19.40;99.90;;;;;;5093874;28;20425;-57
2023/08/13 08:05:22;;;;;;;14.93;4.45;;;19.50;99.90;;;;;;5093757;28;20072;-58
2023/08/13 08:07:48;;;;;;;11.88;3.95;;;19.50;99.90;;;;;;5095518;28;20465;-55
2023/08/13 08:10:14;;;;;;;13.95;3.80;;;19.70;99.90;;;;;;5093587;28;20089;-57
2023/08/13 08:12:40;;;;;;;13.38;4.57;;;19.90;99.90;;;;;;5075159;28;20031;-56
2023/08/13 08:15:06;;;;;;;17.10;3.90;;;20.00;99.90;;;;;;5092732;28;20032;-55
2023/08/13 08:17:33;;;;;;;13.73;3.65;;;20.00;99.90;;;;;;5093733;28;20044;-57
2023/08/13 08:19:59;;;;;;;7.57;3.25;;;20.00;99.90;;;;;;5094444;28;20074;-56
2023/08/13 08:22:26;;;;;;;14.43;3.72;;;20.00;99.90;;;;;;5092946;28;20051;-57
2023/08/13 08:24:54;;;;;;;12.65;3.78;;;19.90;99.90;;;;;;5093349;28;20044;-55
2023/08/13 08:27:20;;;;;;;8.80;3.45;;;20.00;99.90;;;;;;5097074;28;20405;-55
2023/08/13 08:29:45;;;;;;;10.82;3.13;;;20.00;99.90;;;;;;5096742;27;20035;-54
2023/08/13 08:32:11;;;;;;;16.52;3.78;;;20.10;99.90;;;;;;5099169;27;20032;-56
2023/08/13 08:34:37;;;;;;;13.07;3.40;;;20.30;99.90;;;;;;5097706;27;20032;-58
2023/08/13 08:37:04;;;;;;;9.35;3.08;;;20.50;99.90;;;;;;5097643;27;20050;-55
2023/08/13 08:39:30;;;;;;;10.48;3.50;;;20.60;99.90;;;;;;5098573;27;20048;-56
2023/08/13 08:41:57;;;;;;;13.10;3.75;;;20.60;99.90;;;;;;5097259;27;20063;-55
2023/08/13 08:44:24;;;;;;;8.98;3.10;;;20.60;99.90;;;;;;5099442;28;20047;-55
2023/08/13 08:46:51;;;;;;;12.57;3.53;;;20.70;99.90;;;;;;5097567;28;20031;-56
2023/08/13 08:49:21;;;;;;;14.77;3.30;;;20.80;99.90;;;;;;5095622;28;20468;-56
2023/08/13 08:51:48;;;;;;;13.25;3.83;;;20.90;99.90;;;;;;5097668;27;20039;-55
2023/08/13 08:54:14;;;;;;;12.05;3.17;;;21.00;99.90;;;;;;5096035;28;20050;-56
2023/08/13 08:56:40;;;;;;;11.13;2.70;;;21.00;99.90;;;;;;5095991;27;20053;-56
2023/08/13 08:59:06;;;;;;;8.43;2.60;;;21.00;99.90;;;;;;5097924;28;20073;-57
2023/08/13 09:01:32;;;;;;;7.40;2.70;;;21.00;99.90;;;;;;5096970;27;20040;-55
2023/08/13 09:03:58;;;;;;;10.85;2.72;;;20.90;99.90;;;;;;5079865;28;20047;-57
2023/08/13 09:06:44;;;;;;;8.95;3.05;;;20.80;99.90;;;;;;5096628;28;20098;-58
2023/08/13 09:09:09;;;;;;;13.45;2.90;;;20.90;99.90;;;;;;5096050;28;20174;-57
2023/08/13 09:11:35;;;;;;;14.32;2.90;;;21.00;99.90;;;;;;5079430;28;20122;-56
2023/08/13 09:14:02;;;;;;;11.57;3.25;;;21.10;99.90;;;;;;5098443;27;20045;-57
2023/08/13 09:16:28;;;;;;;9.18;2.95;;;21.30;99.90;;;;;;5096334;28;20044;-57
2023/08/13 09:18:53;;;;;;;12.32;3.20;;;21.60;99.90;;;;;;5099351;27;20504;-56
2023/08/13 09:21:24;;;;;;;10.65;2.10;;;21.60;99.90;;;;;;5095245;28;20050;-56
2023/08/13 09:23:54;;;;;;;14.00;3.00;;;21.60;99.90;;;;;;5096417;28;20044;-57
2023/08/13 09:26:20;;;;;;;10.23;2.50;;;21.80;99.90;;;;;;5095548;28;20059;-56
2023/08/13 09:28:46;;;;;;;7.18;2.13;;;22.00;99.90;;;;;;5096714;28;20032;-56
2023/08/13 09:31:11;;;;;;;6.90;2.22;;;22.20;99.90;;;;;;5096987;28;20264;-56
2023/08/13 09:33:37;;;;;;;9.40;2.80;;;22.30;99.90;;;;;;5095611;27;20031;-57
2023/08/13 09:36:03;;;;;;;8.75;1.90;;;22.30;99.90;;;;;;5077933;28;20447;-56
2023/08/13 09:38:29;;;;;;;11.90;2.53;;;22.40;99.90;;;;;;5095001;28;20043;-55
2023/08/13 09:40:55;;;;;;;8.68;2.10;;;22.40;99.90;;;;;;5098010;27;20035;-57
2023/08/13 09:43:25;;;;;;;6.68;1.83;;;22.50;99.90;;;;;;5095714;27;20047;-56
2023/08/13 09:45:54;;;;;;;6.88;1.85;;;22.70;99.90;;;;;;5078957;28;20044;-58
2023/08/13 09:48:24;;;;;;;10.93;2.65;;;22.80;99.90;;;;;;5095846;28;20457;-57
2023/08/13 09:50:53;;;;;;;8.18;1.80;;;23.00;99.90;;;;;;5095102;27;20775;-57
2023/08/13 09:53:20;;;;;;;7.45;2.20;;;23.10;99.90;;;;;;5095788;28;20809;-56
2023/08/13 09:55:54;;;;;;;7.85;1.83;;;23.20;99.90;;;;;;5096758;27;20039;-57
2023/08/13 09:58:20;;;;;;;9.82;2.20;;;23.30;99.90;;;;;;5095542;28;20043;-55
2023/08/13 10:00:47;;;;;;;5.20;1.90;;;23.30;99.90;;;;;;5096636;27;20027;-56
2023/08/13 10:03:16;;;;;;;6.68;2.03;;;23.20;99.90;;;;;;5093087;28;20047;-57
2023/08/13 10:05:43;;;;;;;9.38;2.13;;;23.10;99.90;;;;;;5095635;27;20050;-57
2023/08/13 10:08:09;;;;;;;6.30;1.90;;;23.00;99.90;;;;;;5074711;28;20048;-56
2023/08/13 10:10:37;;;;;;;7.82;2.20;;;23.00;99.90;;;;;;5095853;28;20705;-56
2023/08/13 10:13:03;;;;;;;9.38;2.38;;;23.00;99.90;;;;;;5094762;28;20039;-56
2023/08/13 10:15:31;;;;;;;6.72;1.83;;;23.00;99.90;;;;;;5095967;28;20046;-57
2023/08/13 10:17:58;;;;;;;5.68;1.90;;;23.00;99.90;;;;;;5093977;28;20043;-55
2023/08/13 10:20:25;;;;;;;7.38;2.05;;;23.00;99.90;;;;;;5096865;27;20070;-55
2023/08/13 10:22:53;;;;;;;6.60;1.70;;;23.00;99.90;;;;;;5097236;27;20055;-56
2023/08/13 10:25:32;;;;;;;5.37;1.53;;;23.00;99.90;;;;;;5094791;28;20061;-57
2023/08/13 10:27:58;;;;;;;6.25;1.95;;;23.00;99.90;;;;;;5095073;27;20048;-57
2023/08/13 10:30:24;;;;;;;6.13;1.70;;;23.20;99.90;;;;;;5093799;27;20042;-57
2023/08/13 10:33:00;;;;;;;7.20;1.83;;;23.50;99.90;;;;;;5096191;28;20063;-56
2023/08/13 10:35:39;;;;;;;4.57;1.67;;;23.80;99.90;;;;;;5095877;28;20066;-55
2023/08/13 10:38:05;;;;;;;5.50;1.50;;;23.90;99.90;;;;;;5094398;27;20032;-57
2023/08/13 10:40:32;;;;;;;5.60;1.70;;;24.00;99.90;;;;;;5094346;28;20051;-57
2023/08/13 10:42:59;;;;;;;5.30;1.65;;;24.20;99.90;;;;;;5096680;27;20172;-57
2023/08/13 10:45:35;;;;;;;3.42;1.48;;;24.40;99.90;;;;;;5094461;28;20046;-57
2023/08/13 10:48:08;;;;;;;7.72;1.92;;;24.40;99.90;;;;;;5095151;27;20157;-57
2023/08/13 10:50:39;;;;;;;4.32;1.70;;;24.40;99.90;;;;;;5095937;27;20193;-56
2023/08/13 10:53:13;;;;;;;5.07;1.73;;;24.50;99.90;;;;;;5092831;28;20036;-57
2023/08/13 10:55:50;;;;;;;5.38;1.70;;;24.80;99.90;;;;;;5061328;28;20047;-56
2023/08/13 10:58:26;;;;;;;6.10;1.58;;;25.00;99.90;;;;;;5097169;28;20039;-57
2023/08/13 11:00:56;;;;;;;8.80;2.00;;;25.20;99.10;;;;;;5060705;28;20374;-57
2023/08/13 11:03:30;;;;;;;6.45;1.40;;;25.30;99.00;;;;;;5095004;27;20047;-56
2023/08/13 11:05:56;;;;;;;5.40;1.65;;;25.40;98.90;;;;;;5094842;27;20040;-57
2023/08/13 11:08:23;;;;;;;6.78;1.80;;;25.40;98.20;;;;;;5094338;28;20046;-57
2023/08/13 11:10:50;;;;;;;4.95;1.73;;;25.20;97.70;;;;;;5094196;27;20158;-58
2023/08/13 11:13:17;;;;;;;4.70;1.40;;;25.00;97.30;;;;;;5094255;28;20050;-57
2023/08/13 11:15:53;;;;;;;5.95;1.50;;;24.60;97.30;;;;;;5076269;28;20843;-56
2023/08/13 11:18:20;;;;;;;6.38;1.70;;;24.40;97.50;;;;;;5094087;27;20115;-57
2023/08/13 11:20:48;;;;;;;6.88;1.70;;;24.30;98.00;;;;;;5096232;28;20104;-57
2023/08/13 11:23:14;;;;;;;4.18;1.52;;;24.30;98.20;;;;;;5092602;28;20079;-57
2023/08/13 11:25:40;;;;;;;4.25;1.50;;;24.60;98.10;;;;;;5093735;27;20042;-57
2023/08/13 11:28:07;;;;;;;4.70;1.45;;;24.80;98.10;;;;;;5093353;28;20079;-57
2023/08/13 11:30:32;;;;;;;6.57;1.52;;;24.90;97.60;;;;;;5078398;27;20047;-56
2023/08/13 11:32:58;;;;;;;4.85;1.83;;;25.00;97.50;;;;;;5095155;28;20077;-55
2023/08/13 11:35:24;;;;;;;7.85;1.63;;;25.10;97.40;;;;;;5096198;28;20050;-55
2023/08/13 11:37:50;;;;;;;6.43;1.80;;;25.10;96.90;;;;;;5074651;28;20075;-57
2023/08/13 11:40:16;;;;;;;5.75;1.85;;;24.80;96.90;;;;;;5095346;28;20105;-56
2023/08/13 11:42:56;;;;;;;4.65;1.73;;;24.70;97.40;;;;;;5092775;28;20396;-57
2023/08/13 11:45:26;;;;;;;6.78;1.70;;;24.50;98.20;;;;;;5093914;28;20035;-56
2023/08/13 11:48:06;;;;;;;8.20;2.00;;;24.40;98.00;;;;;;5093859;28;20040;-55
2023/08/13 11:50:32;;;;;;;6.22;1.60;;;24.40;98.00;;;;;;5095058;28;20042;-56
2023/08/13 11:53:12;;;;;;;4.57;1.70;;;24.40;97.90;;;;;;5094237;28;20529;-55
2023/08/13 11:55:48;;;;;;;4.22;1.85;;;24.30;97.40;;;;;;5096314;28;20042;-58
2023/08/13 11:58:18;;;;;;;5.40;1.92;;;24.30;97.30;;;;;;5094616;28;20040;-57
2023/08/13 12:00:44;;;;;;;5.03;1.80;;;24.30;97.60;;;;;;5095621;28;20047;-57
2023/08/13 12:03:13;;;;;;;8.13;1.65;;;24.30;97.90;;;;;;5097623;27;20050;-56
2023/08/13 12:05:39;;;;;;;6.55;2.00;;;24.30;97.60;;;;;;5100419;28;20061;-56
2023/08/13 12:08:09;;;;;;;6.55;1.65;;;24.30;97.80;;;;;;5097049;28;20043;-58
2023/08/13 12:10:36;;;;;;;5.18;1.67;;;24.20;98.10;;;;;;5086434;28;20047;-57
2023/08/13 12:13:02;;;;;;;4.22;1.77;;;24.10;98.00;;;;;;5097788;28;20048;-56
2023/08/13 12:15:29;;;;;;;6.93;1.70;;;24.10;98.10;;;;;;5080135;27;20488;-57
2023/08/13 12:17:57;;;;;;;6.05;1.48;;;24.10;98.40;;;;;;5098433;27;20044;-55
2023/08/13 12:20:23;;;;;;;3.97;1.52;;;23.90;98.40;;;;;;5096567;28;20470;-58
2023/08/13 12:22:49;;;;;;;4.07;1.40;;;23.80;98.20;;;;;;5096834;27;20155;-56
2023/08/13 12:25:16;;;;;;;3.15;1.45;;;23.60;98.20;;;;;;5096917;28;20634;-58
2023/08/13 12:27:44;;;;;;;3.85;1.42;;;23.50;98.40;;;;;;5079231;28;20048;-56
2023/08/13 12:30:12;;;;;;;7.65;1.60;;;23.40;98.70;;;;;;5080746;28;20038;-57
2023/08/13 12:32:37;;;;;;;7.75;1.70;;;23.20;99.30;;;;;;5099779;28;20478;-55
2023/08/13 12:35:03;;;;;;;7.00;2.00;;;23.10;99.70;;;;;;5096161;27;20031;-57
2023/08/13 12:37:29;;;;;;;7.35;1.98;;;23.00;99.90;;;;;;5080528;28;20044;-56
2023/08/13 12:39:55;;;;;;;5.78;1.70;;;22.90;99.90;;;;;;5095574;28;20116;-57